Terminal Aerodrome Forecast
Issued by NWS

Home | Current Version | Previous Version | Text Only | Print | Product List | Glossary On
Versions: 1 2 3 4 5 6 7 8 9 10 11 12 13 14 15
000
FTUS46 KLOX 242000 AAA
TAFWJF
TAF AMD
KWJF 242025Z 2420/2518 VRB05KT P6SM FEW250
     FM242100 24010KT P6SM FEW250
     FM242300 26015G25KT P6SM FEW250
     FM250500 26014KT P6SM SCT250=

USA.gov is the U.S. government's official web portal to all federal, state and local government web resources and services.